Max Planck — ELZY8 — position and weather

sailwx.info

Track history (hours):
 
Tides and Currents Weather Stations Pressure Air Temp Water Temp Dewpoint Dewpoint Depression Visibility Wind Speed Wind Dir Waves Ship Positions

Max Planck

Last reported at 2015-Mar-25 02:26 UTC. Time now 2015-Mar-28 01:49 UTC.
Position N 34°58' E 139°30'.

Length 99.9 m; beam 16.2 m; draft 6.8 m.

Type: Tanker. MMSI: 636091773.

Date/timePositionNaut miles runAvg speedWind from/ knotsBaromVisibWave heightAir tempDewpointWater temp
2015-Mar-25 02:26N 34°58' E 139°30'1011.8
2015-Mar-25 01:33N 35°03' E 139°41'1211.8
2015-Mar-25 00:33N 35°14' E 139°46'1111.4
2015-Mar-24 23:33N 35°25' E 139°44'1211.9
2015-Mar-24 22:33N 35°31' E 139°57'5 4.7
2015-Mar-24 21:26N 35°32' E 140°03'0 0.0
2015-Mar-24 05:23N 35°32' E 140°03'3 3.9
2015-Mar-24 04:32N 35°31' E 139°60'0 0.0
2015-Mar-24 03:32N 35°31' E 139°60'0 0.0
2015-Mar-24 02:26N 35°31' E 139°60'0 0.0
2015-Mar-24 01:26N 35°31' E 139°60'0 0.1
2015-Mar-24 00:26N 35°31' E 139°60'0 0.0
2015-Mar-23 23:32N 35°31' E 139°60'0 0.0
2015-Mar-23 22:32N 35°31' E 139°60'0 0.0
2015-Mar-23 21:32N 35°31' E 139°60'0 0.0
2015-Mar-23 20:26N 35°30' E 139°60'0 0.0
2015-Mar-23 19:26N 35°30' E 139°60'0 0.0
2015-Mar-23 18:26N 35°30' E 139°60'0 0.0
2015-Mar-23 17:26N 35°30' E 139°60'0 0.1
2015-Mar-23 16:08N 35°31' E 139°59'0 0.0
2015-Mar-23 15:26N 35°31' E 139°59'0 0.0
2015-Mar-23 14:32N 35°31' E 139°59'0 0.0
2015-Mar-23 13:17N 35°31' E 139°59'0 0.1
2015-Mar-23 12:32N 35°30' E 139°59'0 0.1
2015-Mar-23 11:32N 35°31' E 139°59'0 0.0
2015-Mar-23 10:14N 35°31' E 139°59'0 0.0
2015-Mar-23 09:26N 35°30' E 139°59'0 0.0
2015-Mar-23 08:32N 35°30' E 139°59'0 0.1
2015-Mar-23 07:32N 35°30' E 139°59'0 0.1
2015-Mar-23 06:20N 35°31' E 139°59'0 0.1
2015-Mar-23 05:33N 35°31' E 139°59'8 7.6
2015-Mar-23 04:33N 35°28' E 139°51'9 9.3
2015-Mar-23 03:33N 35°20' E 139°44'9 8.8
2015-Mar-23 02:34N 35°11' E 139°47'8 7.6
2015-Mar-23 01:34N 35°04' E 139°44'7 7.4
2015-Mar-23 00:33N 34°57' E 139°41'7 7.0
2015-Mar-22 23:33N 34°51' E 139°37'  
Track history (hours):
 
Tides and Currents Weather Stations Pressure Air Temp Water Temp Dewpoint Dewpoint Depression Visibility Wind Speed Wind Dir Waves Ship Positions

Max Planck

Last reported at 2015-Mar-25 02:26 UTC. Time now 2015-Mar-28 01:49 UTC.
Position N 34°58' E 139°30'.

Length 99.9 m; beam 16.2 m; draft 6.8 m.

Type: Tanker. MMSI: 636091773.

Date/timePositionNaut miles runAvg speedWind from/ knotsBaromVisibWave heightAir tempDewpointWater temp
2015-Mar-25 02:26N 34°58' E 139°30'1011.8
2015-Mar-25 01:33N 35°03' E 139°41'1211.8
2015-Mar-25 00:33N 35°14' E 139°46'1111.4
2015-Mar-24 23:33N 35°25' E 139°44'1211.9
2015-Mar-24 22:33N 35°31' E 139°57'5 4.7
2015-Mar-24 21:26N 35°32' E 140°03'0 0.0
2015-Mar-24 05:23N 35°32' E 140°03'3 3.9
2015-Mar-24 04:32N 35°31' E 139°60'0 0.0
2015-Mar-24 03:32N 35°31' E 139°60'0 0.0
2015-Mar-24 02:26N 35°31' E 139°60'0 0.0
2015-Mar-24 01:26N 35°31' E 139°60'0 0.1
2015-Mar-24 00:26N 35°31' E 139°60'0 0.0
2015-Mar-23 23:32N 35°31' E 139°60'0 0.0
2015-Mar-23 22:32N 35°31' E 139°60'0 0.0
2015-Mar-23 21:32N 35°31' E 139°60'0 0.0
2015-Mar-23 20:26N 35°30' E 139°60'0 0.0
2015-Mar-23 19:26N 35°30' E 139°60'0 0.0
2015-Mar-23 18:26N 35°30' E 139°60'0 0.0
2015-Mar-23 17:26N 35°30' E 139°60'0 0.1
2015-Mar-23 16:08N 35°31' E 139°59'0 0.0
2015-Mar-23 15:26N 35°31' E 139°59'0 0.0
2015-Mar-23 14:32N 35°31' E 139°59'0 0.0
2015-Mar-23 13:17N 35°31' E 139°59'0 0.1
2015-Mar-23 12:32N 35°30' E 139°59'0 0.1
2015-Mar-23 11:32N 35°31' E 139°59'0 0.0
2015-Mar-23 10:14N 35°31' E 139°59'0 0.0
2015-Mar-23 09:26N 35°30' E 139°59'0 0.0
2015-Mar-23 08:32N 35°30' E 139°59'0 0.1
2015-Mar-23 07:32N 35°30' E 139°59'0 0.1
2015-Mar-23 06:20N 35°31' E 139°59'0 0.1
2015-Mar-23 05:33N 35°31' E 139°59'8 7.6
2015-Mar-23 04:33N 35°28' E 139°51'9 9.3
2015-Mar-23 03:33N 35°20' E 139°44'9 8.8
2015-Mar-23 02:34N 35°11' E 139°47'8 7.6
2015-Mar-23 01:34N 35°04' E 139°44'7 7.4
2015-Mar-23 00:33N 34°57' E 139°41'7 7.0
2015-Mar-22 23:33N 34°51' E 139°37'  

Dump ship's entire track history